createdAt,value
2022-11-27T00:04:29.388Z,101791.91
2022-11-27T00:09:30.229Z,101795.34
2022-11-27T00:14:32.577Z,101789.41
2022-11-27T00:19:33.549Z,101776.44
2022-11-27T00:24:34.456Z,101765.34
2022-11-27T00:29:36.723Z,101754.94
2022-11-27T00:34:37.777Z,101759.91
2022-11-27T00:39:38.724Z,101767.38
2022-11-27T00:44:41.036Z,101776.88
2022-11-27T00:49:41.954Z,101757.19
2022-11-27T00:54:42.871Z,101764.78
2022-11-27T00:59:45.123Z,101762.22
2022-11-27T01:04:46.513Z,101759.44
2022-11-27T01:09:47.320Z,101753.31
2022-11-27T01:14:49.472Z,101747.34
2022-11-27T01:19:50.383Z,101742.16
2022-11-27T01:24:51.264Z,101738.50
2022-11-27T01:29:53.374Z,101731.44
2022-11-27T01:34:54.548Z,101731.38
2022-11-27T01:39:55.423Z,101723.63
2022-11-27T01:44:58.128Z,101713.81
2022-11-27T01:50:08.353Z,101712.03
2022-11-27T01:55:13.764Z,101701.38
2022-11-27T02:00:17.814Z,101704.75
2022-11-27T02:05:21.937Z,101678.59
2022-11-27T02:10:24.428Z,101679.97
2022-11-27T02:15:36.063Z,101684.81
2022-11-27T02:20:46.662Z,101676.72
2022-11-27T02:26:01.180Z,101667.00
2022-11-27T02:31:10.956Z,101669.53
2022-11-27T02:36:19.934Z,101665.00
2022-11-27T02:41:26.500Z,101669.81
2022-11-27T02:46:30.251Z,101667.13
2022-11-27T02:51:37.320Z,101675.28
2022-11-27T02:56:39.768Z,101673.31
2022-11-27T03:01:46.130Z,101679.13
2022-11-27T03:06:49.650Z,101680.81
2022-11-27T03:11:50.593Z,101678.78
2022-11-27T03:17:02.167Z,101687.47
2022-11-27T03:22:05.234Z,101684.97
2022-11-27T03:27:06.676Z,101688.41
2022-11-27T03:32:09.284Z,101683.19
2022-11-27T03:37:10.279Z,101680.50
2022-11-27T03:42:21.031Z,101678.31
2022-11-27T03:47:32.838Z,101678.59
2022-11-27T03:52:40.495Z,101668.06
2022-11-27T03:57:48.901Z,101664.25
2022-11-27T04:02:53.233Z,101662.25
2022-11-27T04:07:54.096Z,101655.84
2022-11-27T04:12:54.903Z,101653.16
2022-11-27T04:17:57.096Z,101662.47
2022-11-27T04:22:58.337Z,101659.63
2022-11-27T04:27:59.176Z,101659.34
2022-11-27T04:33:01.293Z,101671.84
2022-11-27T04:38:02.089Z,101666.66
2022-11-27T04:43:02.843Z,101665.53
2022-11-27T04:48:06.089Z,101671.28
2022-11-27T04:53:06.872Z,101667.47
2022-11-27T04:58:07.639Z,101675.09
2022-11-27T05:03:10.106Z,101670.41
2022-11-27T05:08:11.059Z,101673.94
2022-11-27T05:13:11.927Z,101656.69
2022-11-27T05:18:14.082Z,101667.94
2022-11-27T05:23:14.878Z,101667.28
2022-11-27T05:28:15.653Z,101679.41
2022-11-27T05:33:19.456Z,101684.84
2022-11-27T05:38:20.296Z,101688.06
2022-11-27T05:43:21.104Z,101691.22
2022-11-27T05:48:23.326Z,101684.06
2022-11-27T05:53:24.159Z,101689.59
2022-11-27T05:58:24.965Z,101690.34
2022-11-27T06:03:27.548Z,101678.81
2022-11-27T06:08:28.472Z,101684.47
2022-11-27T06:13:29.231Z,101673.38
2022-11-27T06:18:31.485Z,101680.22
2022-11-27T06:23:32.305Z,101674.53
2022-11-27T06:28:33.303Z,101671.13
2022-11-27T06:33:35.486Z,101671.19
2022-11-27T06:38:39.035Z,101670.31
2022-11-27T06:43:40.146Z,101663.41
2022-11-27T06:48:42.716Z,101658.22
2022-11-27T06:53:49.080Z,101649.59
2022-11-27T06:58:52.337Z,101648.50
2022-11-27T07:03:54.568Z,101641.34
2022-11-27T07:08:56.394Z,101641.09
2022-11-27T07:13:59.598Z,101648.38
2022-11-27T07:19:04.302Z,101641.75
2022-11-27T07:24:05.287Z,101645.81
2022-11-27T07:29:06.180Z,101646.41
2022-11-27T07:34:14.974Z,101658.97
2022-11-27T07:39:33.776Z,101649.53
2022-11-27T07:44:39.687Z,101645.84
2022-11-27T07:49:42.228Z,101644.06
2022-11-27T07:54:43.053Z,101622.38
2022-11-27T07:59:47.254Z,101616.75
2022-11-27T08:04:49.962Z,101605.00
2022-11-27T08:09:53.404Z,101606.25
2022-11-27T08:14:54.282Z,101601.59
2022-11-27T08:19:56.549Z,101586.06
2022-11-27T08:24:58.355Z,101589.91
2022-11-27T08:29:59.640Z,101591.09
2022-11-27T08:35:02.590Z,101579.84
2022-11-27T08:40:04.157Z,101582.69
2022-11-27T08:45:05.646Z,101581.28
2022-11-27T08:50:09.552Z,101581.78
2022-11-27T08:55:10.794Z,101586.66
2022-11-27T09:00:13.151Z,101582.03
2022-11-27T09:05:15.439Z,101592.00
2022-11-27T09:10:16.240Z,101590.22
2022-11-27T09:15:18.002Z,101574.56
2022-11-27T09:20:20.225Z,101572.44
2022-11-27T09:25:21.165Z,101560.44
2022-11-27T09:30:22.249Z,101561.38
2022-11-27T09:35:24.471Z,101550.06
2022-11-27T09:40:25.513Z,101529.31
2022-11-27T09:45:28.134Z,101526.81
2022-11-27T09:50:33.079Z,101513.09
2022-11-27T09:55:38.839Z,101500.31
2022-11-27T10:00:39.720Z,101493.44
2022-11-27T10:05:49.563Z,101477.41
2022-11-27T10:11:06.869Z,101479.09
2022-11-27T10:16:16.760Z,101466.75
2022-11-27T10:21:28.456Z,101451.56
2022-11-27T10:26:32.698Z,101454.47
2022-11-27T10:31:38.222Z,101449.72
2022-11-27T10:36:44.619Z,101433.75
2022-11-27T10:41:52.898Z,101430.66
2022-11-27T10:46:58.318Z,101432.47
2022-11-27T10:52:00.599Z,101422.25
2022-11-27T10:57:20.434Z,101420.75
2022-11-27T11:02:30.446Z,101398.53
2022-11-27T11:07:32.718Z,101397.81
2022-11-27T11:12:33.631Z,101398.72
2022-11-27T11:17:37.269Z,101398.03
2022-11-27T11:22:46.942Z,101388.59
2022-11-27T11:27:50.692Z,101390.41
2022-11-27T11:32:52.739Z,101398.13
2022-11-27T11:37:56.027Z,101408.59
2022-11-27T11:42:58.933Z,101407.00
2022-11-27T11:48:01.223Z,101401.06
2022-11-27T11:53:16.435Z,101388.28
2022-11-27T11:58:36.840Z,101396.06
2022-11-27T12:03:52.523Z,101381.47
2022-11-27T12:09:04.149Z,101373.69
2022-11-27T12:14:19.684Z,101373.69
2022-11-27T12:19:47.213Z,101370.97
2022-11-27T12:25:00.119Z,101373.53
2022-11-27T12:30:13.168Z,101364.91
2022-11-27T12:35:33.317Z,101343.28
2022-11-27T12:40:55.784Z,101331.22
2022-11-27T12:46:03.768Z,101330.28
2022-11-27T12:51:10.784Z,101318.13
2022-11-27T12:56:21.048Z,101318.13
2022-11-27T13:01:28.673Z,101305.91
2022-11-27T13:06:32.402Z,101298.13
2022-11-27T13:11:39.190Z,101290.31
2022-11-27T13:16:46.740Z,101277.41
2022-11-27T13:21:49.026Z,101262.69
2022-11-27T13:26:57.691Z,101260.97
2022-11-27T13:32:02.115Z,101248.84
2022-11-27T13:37:05.708Z,101236.69
2022-11-27T13:42:18.906Z,101228.06
2022-11-27T13:47:22.338Z,101222.72
2022-11-27T13:52:23.838Z,101224.41
2022-11-27T13:57:27.094Z,101222.63
2022-11-27T14:02:41.186Z,101233.72
2022-11-27T14:07:45.259Z,101241.41
2022-11-27T14:12:55.918Z,101236.94
2022-11-27T14:18:08.567Z,101228.19
2022-11-27T14:23:12.816Z,101226.34
2022-11-27T14:28:18.060Z,101222.72
2022-11-27T14:33:21.149Z,101208.81
2022-11-27T14:38:22.314Z,101199.22
2022-11-27T14:43:26.590Z,101204.19
2022-11-27T14:48:31.597Z,101203.13
2022-11-27T14:53:32.774Z,101195.19
2022-11-27T14:58:35.174Z,101190.69
2022-11-27T15:03:37.058Z,101192.19
2022-11-27T15:08:39.377Z,101182.66
2022-11-27T15:13:41.847Z,101191.84
2022-11-27T15:18:49.161Z,101185.75
2022-11-27T15:23:51.362Z,101171.84
2022-11-27T15:28:54.564Z,101170.72
2022-11-27T15:33:57.722Z,101183.63
2022-11-27T15:39:16.089Z,101180.84
2022-11-27T15:44:18.241Z,101174.72
2022-11-27T15:49:20.334Z,101168.78
2022-11-27T15:54:21.254Z,101161.75
2022-11-27T15:59:24.701Z,101156.47
2022-11-27T16:04:25.520Z,101147.69
2022-11-27T16:09:26.321Z,101140.84
2022-11-27T16:14:28.572Z,101134.34
2022-11-27T16:19:30.110Z,101127.53
2022-11-27T16:24:30.964Z,101120.63
2022-11-27T16:29:33.189Z,101125.50
2022-11-27T16:34:34.163Z,101114.97
2022-11-27T16:39:35.085Z,101119.16
2022-11-27T16:44:38.306Z,101116.34
2022-11-27T16:49:39.126Z,101125.88
2022-11-27T16:54:40.348Z,101122.44
2022-11-27T16:59:42.983Z,101119.59
2022-11-27T17:04:43.797Z,101115.94
2022-11-27T17:09:44.704Z,101111.84
2022-11-27T17:14:47.144Z,101088.38
2022-11-27T17:19:49.225Z,101092.06
2022-11-27T17:24:51.907Z,101092.94
2022-11-27T17:29:56.659Z,101081.88
2022-11-27T17:35:02.119Z,101074.16
2022-11-27T17:40:04.161Z,101073.19
2022-11-27T17:45:07.406Z,101053.38
2022-11-27T17:50:09.202Z,101055.03
2022-11-27T17:55:10.646Z,101048.88
2022-11-27T18:00:14.310Z,101045.44
2022-11-27T18:05:15.263Z,101049.56
2022-11-27T18:10:18.268Z,101039.88
2022-11-27T18:15:21.187Z,101020.84
2022-11-27T18:20:22.350Z,101024.34
2022-11-27T18:25:23.239Z,101007.91
2022-11-27T18:30:27.027Z,100989.88
2022-11-27T18:35:27.903Z,100987.28
2022-11-27T18:40:28.918Z,100985.50
2022-11-27T18:45:34.078Z,100980.22
2022-11-27T18:50:36.902Z,100972.63
2022-11-27T18:55:37.899Z,100976.94
2022-11-27T19:00:40.421Z,100976.09
2022-11-27T19:05:41.307Z,100981.41
2022-11-27T19:10:42.147Z,100979.78
2022-11-27T19:15:46.071Z,100979.72
2022-11-27T19:20:48.018Z,100978.84
2022-11-27T19:25:53.830Z,100972.03
2022-11-27T19:30:56.122Z,100975.47
2022-11-27T19:36:01.113Z,100985.56
2022-11-27T19:41:02.237Z,100982.06
2022-11-27T19:46:12.934Z,100973.38
2022-11-27T19:51:14.615Z,100972.50
2022-11-27T19:56:15.585Z,100971.69
2022-11-27T20:01:20.390Z,100966.47
2022-11-27T20:06:23.929Z,100962.91
2022-11-27T20:11:29.785Z,100953.53
2022-11-27T20:16:36.502Z,100935.50
2022-11-27T20:21:39.457Z,100938.13
2022-11-27T20:26:42.788Z,100930.28
2022-11-27T20:31:45.666Z,100932.91
2022-11-27T20:36:46.872Z,100928.50
2022-11-27T20:41:48.089Z,100928.59
2022-11-27T20:46:51.186Z,100920.88
2022-11-27T20:51:52.169Z,100914.03
2022-11-27T20:56:56.338Z,100903.63
2022-11-27T21:01:58.601Z,100902.66
2022-11-27T21:06:59.870Z,100896.66
2022-11-27T21:12:01.962Z,100897.59
2022-11-27T21:17:05.225Z,100893.41
2022-11-27T21:22:08.115Z,100894.06
2022-11-27T21:27:09.950Z,100883.84
2022-11-27T21:32:13.433Z,100876.09
2022-11-27T21:37:14.228Z,100874.38
2022-11-27T21:42:15.224Z,100870.81
2022-11-27T21:47:18.729Z,100857.84
2022-11-27T21:52:20.013Z,100847.63
2022-11-27T21:57:21.723Z,100837.34
2022-11-27T22:02:23.962Z,100844.13
2022-11-27T22:07:24.802Z,100828.63
2022-11-27T22:12:25.680Z,100824.38
2022-11-27T22:17:27.858Z,100821.03
2022-11-27T22:22:29.534Z,100815.06
2022-11-27T22:27:30.567Z,100817.63
2022-11-27T22:32:32.933Z,100811.50
2022-11-27T22:37:33.864Z,100800.47
2022-11-27T22:42:34.676Z,100800.44
2022-11-27T22:47:36.876Z,100791.00
2022-11-27T22:52:37.823Z,100787.53
2022-11-27T22:57:38.662Z,100771.22
2022-11-27T23:02:40.882Z,100772.91
2022-11-27T23:07:42.207Z,100759.09
2022-11-27T23:12:43.029Z,100759.06
2022-11-27T23:17:45.203Z,100754.69
2022-11-27T23:22:45.985Z,100762.50
2022-11-27T23:27:47.997Z,100735.91
2022-11-27T23:32:50.195Z,100739.34
2022-11-27T23:37:51.004Z,100743.59
2022-11-27T23:42:51.800Z,100741.81
2022-11-27T23:47:53.951Z,100745.31
2022-11-27T23:52:55.030Z,100744.56
2022-11-27T23:57:55.829Z,100739.56
